sensor_id;sensor_type;location;lat;lon;timestamp;P1;durP1;ratioP1;P2;durP2;ratioP2
85682;SDS011;76253;52.232;5.176;2024-02-23T00:01:50;4.50;;;1.38;;
85682;SDS011;76253;52.232;5.176;2024-02-23T00:04:16;2.22;;;1.10;;
85682;SDS011;76253;52.232;5.176;2024-02-23T00:06:44;4.72;;;1.60;;
85682;SDS011;76253;52.232;5.176;2024-02-23T00:09:09;4.60;;;1.35;;
85682;SDS011;76253;52.232;5.176;2024-02-23T00:11:35;5.95;;;1.27;;
85682;SDS011;76253;52.232;5.176;2024-02-23T00:14:04;12.27;;;1.98;;
85682;SDS011;76253;52.232;5.176;2024-02-23T00:16:30;6.07;;;1.48;;
85682;SDS011;76253;52.232;5.176;2024-02-23T00:18:55;3.38;;;1.02;;
85682;SDS011;76253;52.232;5.176;2024-02-23T00:21:21;8.48;;;2.05;;
85682;SDS011;76253;52.232;5.176;2024-02-23T00:23:47;3.53;;;0.97;;
85682;SDS011;76253;52.232;5.176;2024-02-23T00:26:13;3.83;;;1.48;;
85682;SDS011;76253;52.232;5.176;2024-02-23T00:28:46;2.63;;;0.93;;
85682;SDS011;76253;52.232;5.176;2024-02-23T00:31:11;6.80;;;1.52;;
85682;SDS011;76253;52.232;5.176;2024-02-23T00:33:36;6.10;;;1.55;;
85682;SDS011;76253;52.232;5.176;2024-02-23T00:38:28;4.43;;;1.55;;
85682;SDS011;76253;52.232;5.176;2024-02-23T00:40:56;3.88;;;1.17;;
85682;SDS011;76253;52.232;5.176;2024-02-23T00:43:21;5.83;;;1.50;;
85682;SDS011;76253;52.232;5.176;2024-02-23T00:45:48;6.65;;;1.83;;
85682;SDS011;76253;52.232;5.176;2024-02-23T00:48:14;2.45;;;1.20;;
85682;SDS011;76253;52.232;5.176;2024-02-23T00:50:40;8.55;;;1.27;;
85682;SDS011;76253;52.232;5.176;2024-02-23T00:53:08;8.97;;;1.50;;
85682;SDS011;76253;52.232;5.176;2024-02-23T00:55:34;8.10;;;1.92;;
85682;SDS011;76253;52.232;5.176;2024-02-23T00:57:59;5.95;;;0.90;;
85682;SDS011;76253;52.232;5.176;2024-02-23T01:00:24;5.43;;;1.05;;
85682;SDS011;76253;52.232;5.176;2024-02-23T01:02:50;6.03;;;1.58;;
85682;SDS011;76253;52.232;5.176;2024-02-23T01:05:16;4.15;;;1.60;;
85682;SDS011;76253;52.232;5.176;2024-02-23T01:07:42;3.97;;;1.27;;
85682;SDS011;76253;52.232;5.176;2024-02-23T01:10:07;6.00;;;1.65;;
85682;SDS011;76253;52.232;5.176;2024-02-23T01:12:34;5.18;;;1.35;;
85682;SDS011;76253;52.232;5.176;2024-02-23T01:15:00;8.63;;;1.23;;
85682;SDS011;76253;52.232;5.176;2024-02-23T01:17:26;5.97;;;1.58;;
85682;SDS011;76253;52.232;5.176;2024-02-23T01:19:51;6.75;;;1.65;;
85682;SDS011;76253;52.232;5.176;2024-02-23T01:22:17;7.82;;;1.17;;
85682;SDS011;76253;52.232;5.176;2024-02-23T01:24:42;4.03;;;1.67;;
85682;SDS011;76253;52.232;5.176;2024-02-23T01:27:08;5.75;;;1.45;;
85682;SDS011;76253;52.232;5.176;2024-02-23T01:29:33;3.00;;;1.27;;
85682;SDS011;76253;52.232;5.176;2024-02-23T01:31:59;3.40;;;1.17;;
85682;SDS011;76253;52.232;5.176;2024-02-23T01:34:25;1.65;;;1.20;;
85682;SDS011;76253;52.232;5.176;2024-02-23T01:36:50;8.85;;;1.45;;
85682;SDS011;76253;52.232;5.176;2024-02-23T01:39:16;1.13;;;0.68;;
85682;SDS011;76253;52.232;5.176;2024-02-23T01:41:41;5.22;;;1.30;;
85682;SDS011;76253;52.232;5.176;2024-02-23T01:44:08;8.02;;;1.25;;
85682;SDS011;76253;52.232;5.176;2024-02-23T01:46:34;2.35;;;0.98;;
85682;SDS011;76253;52.232;5.176;2024-02-23T01:49:00;4.53;;;1.35;;
85682;SDS011;76253;52.232;5.176;2024-02-23T01:51:26;3.22;;;0.93;;
85682;SDS011;76253;52.232;5.176;2024-02-23T01:53:51;2.50;;;1.25;;
85682;SDS011;76253;52.232;5.176;2024-02-23T01:56:17;2.15;;;0.90;;
85682;SDS011;76253;52.232;5.176;2024-02-23T01:58:44;2.75;;;1.23;;
85682;SDS011;76253;52.232;5.176;2024-02-23T02:01:11;1.25;;;0.95;;
85682;SDS011;76253;52.232;5.176;2024-02-23T02:03:37;5.27;;;0.77;;
85682;SDS011;76253;52.232;5.176;2024-02-23T02:06:09;3.17;;;2.05;;
85682;SDS011;76253;52.232;5.176;2024-02-23T02:08:34;2.70;;;1.10;;
85682;SDS011;76253;52.232;5.176;2024-02-23T02:11:00;4.28;;;1.20;;
85682;SDS011;76253;52.232;5.176;2024-02-23T02:13:25;1.43;;;0.83;;
85682;SDS011;76253;52.232;5.176;2024-02-23T02:15:50;2.93;;;0.77;;
85682;SDS011;76253;52.232;5.176;2024-02-23T02:18:16;4.53;;;1.02;;
85682;SDS011;76253;52.232;5.176;2024-02-23T02:20:55;5.88;;;1.30;;
85682;SDS011;76253;52.232;5.176;2024-02-23T02:23:22;3.08;;;1.08;;
85682;SDS011;76253;52.232;5.176;2024-02-23T02:25:54;3.03;;;1.40;;
85682;SDS011;76253;52.232;5.176;2024-02-23T02:28:20;4.63;;;1.25;;
85682;SDS011;76253;52.232;5.176;2024-02-23T02:30:46;4.35;;;1.13;;
85682;SDS011;76253;52.232;5.176;2024-02-23T02:33:11;5.88;;;1.50;;
85682;SDS011;76253;52.232;5.176;2024-02-23T02:35:37;4.32;;;1.00;;
85682;SDS011;76253;52.232;5.176;2024-02-23T02:38:02;5.00;;;0.87;;
85682;SDS011;76253;52.232;5.176;2024-02-23T02:40:27;6.95;;;1.42;;
85682;SDS011;76253;52.232;5.176;2024-02-23T02:42:53;5.50;;;0.95;;
85682;SDS011;76253;52.232;5.176;2024-02-23T02:45:19;4.60;;;1.38;;
85682;SDS011;76253;52.232;5.176;2024-02-23T02:47:45;6.73;;;1.10;;
85682;SDS011;76253;52.232;5.176;2024-02-23T02:50:10;4.27;;;1.10;;
85682;SDS011;76253;52.232;5.176;2024-02-23T02:52:35;2.17;;;0.90;;
85682;SDS011;76253;52.232;5.176;2024-02-23T02:55:01;8.30;;;1.25;;
85682;SDS011;76253;52.232;5.176;2024-02-23T02:57:26;3.87;;;1.00;;
85682;SDS011;76253;52.232;5.176;2024-02-23T02:59:52;8.23;;;1.10;;
85682;SDS011;76253;52.232;5.176;2024-02-23T03:02:18;3.97;;;1.50;;
85682;SDS011;76253;52.232;5.176;2024-02-23T03:04:49;4.20;;;1.48;;
85682;SDS011;76253;52.232;5.176;2024-02-23T03:07:15;3.53;;;0.90;;
85682;SDS011;76253;52.232;5.176;2024-02-23T03:09:41;2.35;;;0.77;;
85682;SDS011;76253;52.232;5.176;2024-02-23T03:12:07;3.55;;;1.02;;
85682;SDS011;76253;52.232;5.176;2024-02-23T03:14:32;4.63;;;1.17;;
85682;SDS011;76253;52.232;5.176;2024-02-23T03:16:58;7.10;;;1.38;;
85682;SDS011;76253;52.232;5.176;2024-02-23T03:19:24;5.40;;;1.10;;
85682;SDS011;76253;52.232;5.176;2024-02-23T03:21:50;2.53;;;1.02;;
85682;SDS011;76253;52.232;5.176;2024-02-23T03:24:16;5.07;;;1.00;;
85682;SDS011;76253;52.232;5.176;2024-02-23T03:26:41;6.38;;;1.23;;
85682;SDS011;76253;52.232;5.176;2024-02-23T03:29:07;8.20;;;1.30;;
85682;SDS011;76253;52.232;5.176;2024-02-23T03:31:32;4.60;;;1.43;;
85682;SDS011;76253;52.232;5.176;2024-02-23T03:33:57;8.13;;;1.53;;
85682;SDS011;76253;52.232;5.176;2024-02-23T03:36:23;4.40;;;1.30;;
85682;SDS011;76253;52.232;5.176;2024-02-23T03:38:50;4.50;;;1.77;;
85682;SDS011;76253;52.232;5.176;2024-02-23T03:41:15;4.53;;;1.00;;
85682;SDS011;76253;52.232;5.176;2024-02-23T03:43:42;6.80;;;1.10;;
85682;SDS011;76253;52.232;5.176;2024-02-23T03:46:07;2.05;;;0.93;;
85682;SDS011;76253;52.232;5.176;2024-02-23T03:48:32;7.53;;;1.30;;
85682;SDS011;76253;52.232;5.176;2024-02-23T03:50:59;7.28;;;1.20;;
85682;SDS011;76253;52.232;5.176;2024-02-23T03:53:24;4.30;;;1.98;;
85682;SDS011;76253;52.232;5.176;2024-02-23T03:55:50;4.60;;;1.17;;
85682;SDS011;76253;52.232;5.176;2024-02-23T03:58:16;2.93;;;1.57;;
85682;SDS011;76253;52.232;5.176;2024-02-23T04:00:43;2.65;;;1.00;;
85682;SDS011;76253;52.232;5.176;2024-02-23T04:03:08;3.97;;;1.58;;
85682;SDS011;76253;52.232;5.176;2024-02-23T04:05:33;4.28;;;1.80;;
85682;SDS011;76253;52.232;5.176;2024-02-23T04:08:00;6.68;;;1.55;;
85682;SDS011;76253;52.232;5.176;2024-02-23T04:10:25;4.97;;;1.17;;
85682;SDS011;76253;52.232;5.176;2024-02-23T04:12:51;3.25;;;1.17;;
85682;SDS011;76253;52.232;5.176;2024-02-23T04:15:16;7.33;;;1.93;;
85682;SDS011;76253;52.232;5.176;2024-02-23T04:20:08;6.47;;;1.90;;
85682;SDS011;76253;52.232;5.176;2024-02-23T04:22:36;8.20;;;1.30;;
85682;SDS011;76253;52.232;5.176;2024-02-23T04:25:02;4.95;;;1.08;;
85682;SDS011;76253;52.232;5.176;2024-02-23T04:27:31;3.78;;;1.67;;
85682;SDS011;76253;52.232;5.176;2024-02-23T04:29:58;4.45;;;1.65;;
85682;SDS011;76253;52.232;5.176;2024-02-23T04:32:23;4.20;;;1.17;;
85682;SDS011;76253;52.232;5.176;2024-02-23T04:34:48;3.33;;;1.30;;
85682;SDS011;76253;52.232;5.176;2024-02-23T04:37:14;8.07;;;1.65;;
85682;SDS011;76253;52.232;5.176;2024-02-23T04:39:39;3.40;;;1.30;;
85682;SDS011;76253;52.232;5.176;2024-02-23T04:42:08;3.65;;;1.30;;
85682;SDS011;76253;52.232;5.176;2024-02-23T04:44:35;3.20;;;1.33;;
85682;SDS011;76253;52.232;5.176;2024-02-23T04:47:01;3.75;;;1.50;;
85682;SDS011;76253;52.232;5.176;2024-02-23T04:49:26;4.07;;;1.55;;
85682;SDS011;76253;52.232;5.176;2024-02-23T04:51:52;4.72;;;1.17;;
85682;SDS011;76253;52.232;5.176;2024-02-23T04:54:18;3.92;;;1.23;;
85682;SDS011;76253;52.232;5.176;2024-02-23T04:56:44;6.32;;;1.30;;
85682;SDS011;76253;52.232;5.176;2024-02-23T04:59:09;5.88;;;2.05;;
85682;SDS011;76253;52.232;5.176;2024-02-23T05:01:35;1.87;;;1.20;;
85682;SDS011;76253;52.232;5.176;2024-02-23T05:04:02;3.55;;;1.67;;
85682;SDS011;76253;52.232;5.176;2024-02-23T05:06:28;6.25;;;1.60;;
85682;SDS011;76253;52.232;5.176;2024-02-23T05:08:53;4.30;;;1.95;;
85682;SDS011;76253;52.232;5.176;2024-02-23T05:11:20;5.03;;;2.03;;
85682;SDS011;76253;52.232;5.176;2024-02-23T05:13:45;6.27;;;1.80;;
85682;SDS011;76253;52.232;5.176;2024-02-23T05:16:11;6.37;;;2.00;;
85682;SDS011;76253;52.232;5.176;2024-02-23T05:18:38;4.90;;;1.98;;
85682;SDS011;76253;52.232;5.176;2024-02-23T05:21:03;5.65;;;1.60;;
85682;SDS011;76253;52.232;5.176;2024-02-23T05:23:29;3.40;;;1.77;;
85682;SDS011;76253;52.232;5.176;2024-02-23T05:25:55;5.38;;;2.10;;
85682;SDS011;76253;52.232;5.176;2024-02-23T05:28:21;10.02;;;2.35;;
85682;SDS011;76253;52.232;5.176;2024-02-23T05:30:46;3.35;;;2.05;;
85682;SDS011;76253;52.232;5.176;2024-02-23T05:33:11;4.53;;;2.77;;
85682;SDS011;76253;52.232;5.176;2024-02-23T05:35:36;6.53;;;2.10;;
85682;SDS011;76253;52.232;5.176;2024-02-23T05:38:02;5.70;;;1.85;;
85682;SDS011;76253;52.232;5.176;2024-02-23T05:40:27;7.15;;;2.10;;
85682;SDS011;76253;52.232;5.176;2024-02-23T05:42:53;8.27;;;2.50;;
85682;SDS011;76253;52.232;5.176;2024-02-23T05:45:20;5.55;;;1.92;;
85682;SDS011;76253;52.232;5.176;2024-02-23T05:47:47;5.68;;;1.88;;
85682;SDS011;76253;52.232;5.176;2024-02-23T05:50:18;9.18;;;2.95;;
85682;SDS011;76253;52.232;5.176;2024-02-23T05:52:43;4.13;;;1.92;;
85682;SDS011;76253;52.232;5.176;2024-02-23T05:55:10;7.45;;;2.30;;
85682;SDS011;76253;52.232;5.176;2024-02-23T05:57:36;8.23;;;2.35;;
85682;SDS011;76253;52.232;5.176;2024-02-23T06:00:01;6.03;;;2.60;;
85682;SDS011;76253;52.232;5.176;2024-02-23T06:02:28;7.32;;;2.42;;
85682;SDS011;76253;52.232;5.176;2024-02-23T06:04:53;7.28;;;2.80;;
85682;SDS011;76253;52.232;5.176;2024-02-23T06:07:18;9.15;;;3.58;;
85682;SDS011;76253;52.232;5.176;2024-02-23T06:09:47;8.98;;;3.80;;
85682;SDS011;76253;52.232;5.176;2024-02-23T06:14:38;7.32;;;3.53;;
85682;SDS011;76253;52.232;5.176;2024-02-23T06:17:04;10.30;;;3.05;;
85682;SDS011;76253;52.232;5.176;2024-02-23T06:19:31;5.18;;;2.75;;
85682;SDS011;76253;52.232;5.176;2024-02-23T06:21:57;5.80;;;2.33;;
85682;SDS011;76253;52.232;5.176;2024-02-23T06:24:22;7.57;;;3.50;;
85682;SDS011;76253;52.232;5.176;2024-02-23T06:26:47;5.82;;;2.88;;
85682;SDS011;76253;52.232;5.176;2024-02-23T06:29:14;5.30;;;3.10;;
85682;SDS011;76253;52.232;5.176;2024-02-23T06:31:40;6.47;;;2.22;;
85682;SDS011;76253;52.232;5.176;2024-02-23T06:34:06;5.70;;;2.38;;
85682;SDS011;76253;52.232;5.176;2024-02-23T06:36:32;7.32;;;3.17;;
85682;SDS011;76253;52.232;5.176;2024-02-23T06:38:57;3.35;;;2.28;;
85682;SDS011;76253;52.232;5.176;2024-02-23T06:41:27;7.07;;;2.33;;
85682;SDS011;76253;52.232;5.176;2024-02-23T06:43:54;3.55;;;2.03;;
85682;SDS011;76253;52.232;5.176;2024-02-23T06:46:21;6.45;;;2.10;;
85682;SDS011;76253;52.232;5.176;2024-02-23T06:48:47;5.97;;;1.95;;
85682;SDS011;76253;52.232;5.176;2024-02-23T06:51:13;4.28;;;2.83;;
85682;SDS011;76253;52.232;5.176;2024-02-23T06:53:41;3.83;;;1.85;;
85682;SDS011;76253;52.232;5.176;2024-02-23T06:56:08;6.15;;;2.20;;
85682;SDS011;76253;52.232;5.176;2024-02-23T06:58:34;3.15;;;1.77;;
85682;SDS011;76253;52.232;5.176;2024-02-23T07:00:59;4.20;;;2.03;;
85682;SDS011;76253;52.232;5.176;2024-02-23T07:05:51;11.18;;;2.00;;
85682;SDS011;76253;52.232;5.176;2024-02-23T07:08:17;6.13;;;2.22;;
85682;SDS011;76253;52.232;5.176;2024-02-23T07:10:43;6.88;;;2.35;;
85682;SDS011;76253;52.232;5.176;2024-02-23T07:13:08;5.72;;;2.20;;
85682;SDS011;76253;52.232;5.176;2024-02-23T07:15:34;3.08;;;1.38;;
85682;SDS011;76253;52.232;5.176;2024-02-23T07:18:00;4.78;;;1.77;;
85682;SDS011;76253;52.232;5.176;2024-02-23T07:20:26;5.25;;;1.92;;
85682;SDS011;76253;52.232;5.176;2024-02-23T07:22:51;4.80;;;2.43;;
85682;SDS011;76253;52.232;5.176;2024-02-23T07:25:18;3.20;;;1.73;;
85682;SDS011;76253;52.232;5.176;2024-02-23T07:27:47;5.53;;;1.50;;
85682;SDS011;76253;52.232;5.176;2024-02-23T07:30:16;2.92;;;1.40;;
85682;SDS011;76253;52.232;5.176;2024-02-23T07:32:43;3.90;;;1.77;;
85682;SDS011;76253;52.232;5.176;2024-02-23T07:35:09;5.50;;;1.80;;
85682;SDS011;76253;52.232;5.176;2024-02-23T07:37:36;8.25;;;2.30;;
85682;SDS011;76253;52.232;5.176;2024-02-23T07:40:02;5.32;;;1.83;;
85682;SDS011;76253;52.232;5.176;2024-02-23T07:42:31;3.42;;;1.45;;
85682;SDS011;76253;52.232;5.176;2024-02-23T07:44:57;2.50;;;1.80;;
85682;SDS011;76253;52.232;5.176;2024-02-23T07:47:23;3.55;;;1.40;;
85682;SDS011;76253;52.232;5.176;2024-02-23T07:49:49;4.50;;;1.73;;
85682;SDS011;76253;52.232;5.176;2024-02-23T07:52:14;2.72;;;1.30;;
85682;SDS011;76253;52.232;5.176;2024-02-23T07:54:39;2.10;;;1.10;;
85682;SDS011;76253;52.232;5.176;2024-02-23T07:57:05;4.15;;;1.38;;
85682;SDS011;76253;52.232;5.176;2024-02-23T07:59:30;3.53;;;1.60;;
85682;SDS011;76253;52.232;5.176;2024-02-23T08:01:58;2.15;;;1.40;;
85682;SDS011;76253;52.232;5.176;2024-02-23T08:04:24;3.63;;;1.50;;
85682;SDS011;76253;52.232;5.176;2024-02-23T08:06:49;5.53;;;2.10;;
85682;SDS011;76253;52.232;5.176;2024-02-23T08:09:16;4.97;;;1.10;;
85682;SDS011;76253;52.232;5.176;2024-02-23T08:11:41;3.00;;;0.93;;
85682;SDS011;76253;52.232;5.176;2024-02-23T08:14:08;5.78;;;1.95;;
85682;SDS011;76253;52.232;5.176;2024-02-23T08:16:36;4.07;;;1.27;;
85682;SDS011;76253;52.232;5.176;2024-02-23T08:19:02;3.28;;;1.45;;
85682;SDS011;76253;52.232;5.176;2024-02-23T08:21:27;1.80;;;1.10;;
85682;SDS011;76253;52.232;5.176;2024-02-23T08:23:54;3.72;;;0.88;;
85682;SDS011;76253;52.232;5.176;2024-02-23T08:26:19;5.63;;;0.80;;
85682;SDS011;76253;52.232;5.176;2024-02-23T08:28:46;4.67;;;1.20;;
85682;SDS011;76253;52.232;5.176;2024-02-23T08:31:11;3.17;;;1.33;;
85682;SDS011;76253;52.232;5.176;2024-02-23T08:33:36;3.88;;;1.30;;
85682;SDS011;76253;52.232;5.176;2024-02-23T08:38:32;4.35;;;1.30;;
85682;SDS011;76253;52.232;5.176;2024-02-23T08:40:57;5.25;;;1.45;;
85682;SDS011;76253;52.232;5.176;2024-02-23T08:43:24;5.07;;;1.85;;
85682;SDS011;76253;52.232;5.176;2024-02-23T08:45:51;3.65;;;1.15;;
85682;SDS011;76253;52.232;5.176;2024-02-23T08:48:16;3.35;;;1.50;;
85682;SDS011;76253;52.232;5.176;2024-02-23T08:50:45;3.35;;;1.58;;
85682;SDS011;76253;52.232;5.176;2024-02-23T08:53:10;3.63;;;1.58;;
85682;SDS011;76253;52.232;5.176;2024-02-23T08:55:36;6.18;;;2.17;;
85682;SDS011;76253;52.232;5.176;2024-02-23T08:58:01;1.13;;;0.85;;
85682;SDS011;76253;52.232;5.176;2024-02-23T09:00:26;3.43;;;1.43;;
85682;SDS011;76253;52.232;5.176;2024-02-23T09:02:52;7.05;;;1.90;;
85682;SDS011;76253;52.232;5.176;2024-02-23T09:05:17;4.70;;;2.03;;
85682;SDS011;76253;52.232;5.176;2024-02-23T09:07:42;6.28;;;1.83;;
85682;SDS011;76253;52.232;5.176;2024-02-23T09:10:08;7.30;;;2.10;;
85682;SDS011;76253;52.232;5.176;2024-02-23T09:12:33;4.28;;;1.95;;
85682;SDS011;76253;52.232;5.176;2024-02-23T09:14:59;5.43;;;2.13;;
85682;SDS011;76253;52.232;5.176;2024-02-23T09:17:24;5.23;;;2.03;;
85682;SDS011;76253;52.232;5.176;2024-02-23T09:19:50;9.80;;;2.08;;
85682;SDS011;76253;52.232;5.176;2024-02-23T09:22:16;6.45;;;1.83;;
85682;SDS011;76253;52.232;5.176;2024-02-23T09:24:41;7.03;;;2.35;;
85682;SDS011;76253;52.232;5.176;2024-02-23T09:27:07;5.25;;;2.05;;
85682;SDS011;76253;52.232;5.176;2024-02-23T09:29:35;6.57;;;1.70;;
85682;SDS011;76253;52.232;5.176;2024-02-23T09:32:00;10.00;;;3.05;;
85682;SDS011;76253;52.232;5.176;2024-02-23T09:34:26;3.72;;;1.95;;
85682;SDS011;76253;52.232;5.176;2024-02-23T09:36:52;5.00;;;1.77;;
85682;SDS011;76253;52.232;5.176;2024-02-23T09:39:17;2.63;;;1.50;;
85682;SDS011;76253;52.232;5.176;2024-02-23T09:41:43;1.73;;;1.35;;
85682;SDS011;76253;52.232;5.176;2024-02-23T09:44:09;4.28;;;1.90;;
85682;SDS011;76253;52.232;5.176;2024-02-23T09:46:38;5.00;;;1.77;;
85682;SDS011;76253;52.232;5.176;2024-02-23T09:49:07;2.65;;;1.42;;
85682;SDS011;76253;52.232;5.176;2024-02-23T09:51:36;9.73;;;1.92;;
85682;SDS011;76253;52.232;5.176;2024-02-23T09:54:01;5.95;;;1.95;;
85682;SDS011;76253;52.232;5.176;2024-02-23T09:56:28;2.25;;;1.67;;
85682;SDS011;76253;52.232;5.176;2024-02-23T09:58:59;3.92;;;1.60;;
85682;SDS011;76253;52.232;5.176;2024-02-23T10:01:27;4.90;;;2.05;;
85682;SDS011;76253;52.232;5.176;2024-02-23T10:03:56;4.50;;;2.13;;
85682;SDS011;76253;52.232;5.176;2024-02-23T10:06:31;5.82;;;2.20;;
85682;SDS011;76253;52.232;5.176;2024-02-23T10:08:57;5.63;;;1.60;;
85682;SDS011;76253;52.232;5.176;2024-02-23T10:11:22;3.60;;;1.85;;
85682;SDS011;76253;52.232;5.176;2024-02-23T10:13:50;2.92;;;1.67;;
85682;SDS011;76253;52.232;5.176;2024-02-23T10:16:17;6.32;;;1.98;;
85682;SDS011;76253;52.232;5.176;2024-02-23T10:18:45;2.85;;;1.48;;
85682;SDS011;76253;52.232;5.176;2024-02-23T10:21:11;5.60;;;1.88;;
85682;SDS011;76253;52.232;5.176;2024-02-23T10:23:37;8.45;;;2.00;;
85682;SDS011;76253;52.232;5.176;2024-02-23T10:26:04;2.90;;;1.27;;
85682;SDS011;76253;52.232;5.176;2024-02-23T10:28:30;5.93;;;2.38;;
85682;SDS011;76253;52.232;5.176;2024-02-23T10:30:56;3.50;;;1.60;;
85682;SDS011;76253;52.232;5.176;2024-02-23T10:33:22;5.00;;;2.00;;
85682;SDS011;76253;52.232;5.176;2024-02-23T10:35:48;6.15;;;1.98;;
85682;SDS011;76253;52.232;5.176;2024-02-23T10:38:23;3.42;;;1.63;;
85682;SDS011;76253;52.232;5.176;2024-02-23T10:40:48;6.72;;;2.42;;
85682;SDS011;76253;52.232;5.176;2024-02-23T10:43:17;6.28;;;2.38;;
85682;SDS011;76253;52.232;5.176;2024-02-23T10:45:46;3.15;;;1.92;;
85682;SDS011;76253;52.232;5.176;2024-02-23T10:48:12;4.72;;;1.75;;
85682;SDS011;76253;52.232;5.176;2024-02-23T10:50:39;7.32;;;2.40;;
85682;SDS011;76253;52.232;5.176;2024-02-23T10:53:09;2.33;;;1.27;;
85682;SDS011;76253;52.232;5.176;2024-02-23T10:55:36;3.97;;;2.00;;
85682;SDS011;76253;52.232;5.176;2024-02-23T10:58:06;2.95;;;1.90;;
85682;SDS011;76253;52.232;5.176;2024-02-23T11:00:37;4.78;;;1.92;;
85682;SDS011;76253;52.232;5.176;2024-02-23T11:03:02;3.33;;;1.95;;
85682;SDS011;76253;52.232;5.176;2024-02-23T11:05:31;4.00;;;2.10;;
85682;SDS011;76253;52.232;5.176;2024-02-23T11:07:57;4.10;;;1.67;;
85682;SDS011;76253;52.232;5.176;2024-02-23T11:10:24;5.47;;;2.30;;
85682;SDS011;76253;52.232;5.176;2024-02-23T11:13:00;6.45;;;2.10;;
85682;SDS011;76253;52.232;5.176;2024-02-23T11:15:28;2.85;;;1.48;;
85682;SDS011;76253;52.232;5.176;2024-02-23T11:17:54;1.95;;;1.58;;
85682;SDS011;76253;52.232;5.176;2024-02-23T11:20:20;3.13;;;1.77;;
85682;SDS011;76253;52.232;5.176;2024-02-23T11:22:53;1.58;;;1.48;;
85682;SDS011;76253;52.232;5.176;2024-02-23T11:25:20;4.82;;;1.63;;
85682;SDS011;76253;52.232;5.176;2024-02-23T11:27:52;3.58;;;1.60;;
85682;SDS011;76253;52.232;5.176;2024-02-23T11:30:18;3.08;;;1.48;;
85682;SDS011;76253;52.232;5.176;2024-02-23T11:32:44;5.82;;;2.08;;
85682;SDS011;76253;52.232;5.176;2024-02-23T11:35:16;2.88;;;1.58;;
85682;SDS011;76253;52.232;5.176;2024-02-23T11:37:47;3.28;;;1.83;;
85682;SDS011;76253;52.232;5.176;2024-02-23T11:40:14;3.47;;;1.98;;
85682;SDS011;76253;52.232;5.176;2024-02-23T11:42:43;3.33;;;2.10;;
85682;SDS011;76253;52.232;5.176;2024-02-23T11:45:08;2.38;;;1.55;;
85682;SDS011;76253;52.232;5.176;2024-02-23T11:47:36;2.70;;;1.45;;
85682;SDS011;76253;52.232;5.176;2024-02-23T11:50:01;1.85;;;1.40;;
85682;SDS011;76253;52.232;5.176;2024-02-23T11:52:27;1.77;;;1.17;;
85682;SDS011;76253;52.232;5.176;2024-02-23T11:54:52;2.63;;;1.90;;
85682;SDS011;76253;52.232;5.176;2024-02-23T11:57:18;3.53;;;1.88;;
85682;SDS011;76253;52.232;5.176;2024-02-23T11:59:43;6.38;;;2.42;;
85682;SDS011;76253;52.232;5.176;2024-02-23T12:02:09;4.53;;;1.83;;
85682;SDS011;76253;52.232;5.176;2024-02-23T12:04:34;7.60;;;2.15;;
85682;SDS011;76253;52.232;5.176;2024-02-23T12:07:00;2.58;;;1.55;;
85682;SDS011;76253;52.232;5.176;2024-02-23T12:09:25;7.93;;;2.33;;
85682;SDS011;76253;52.232;5.176;2024-02-23T12:11:51;5.05;;;2.10;;
85682;SDS011;76253;52.232;5.176;2024-02-23T12:14:17;3.00;;;1.80;;
85682;SDS011;76253;52.232;5.176;2024-02-23T12:19:08;3.50;;;1.60;;
85682;SDS011;76253;52.232;5.176;2024-02-23T12:21:34;2.83;;;1.77;;
85682;SDS011;76253;52.232;5.176;2024-02-23T12:24:03;5.13;;;2.08;;
85682;SDS011;76253;52.232;5.176;2024-02-23T12:26:29;4.88;;;1.70;;
85682;SDS011;76253;52.232;5.176;2024-02-23T12:28:59;1.42;;;1.27;;
85682;SDS011;76253;52.232;5.176;2024-02-23T12:31:26;4.32;;;1.67;;
85682;SDS011;76253;52.232;5.176;2024-02-23T12:33:51;3.75;;;1.85;;
85682;SDS011;76253;52.232;5.176;2024-02-23T12:36:17;3.30;;;2.28;;
85682;SDS011;76253;52.232;5.176;2024-02-23T12:38:43;3.20;;;2.10;;
85682;SDS011;76253;52.232;5.176;2024-02-23T12:41:08;4.43;;;1.92;;
85682;SDS011;76253;52.232;5.176;2024-02-23T12:45:59;4.43;;;1.80;;
85682;SDS011;76253;52.232;5.176;2024-02-23T12:48:28;4.80;;;2.17;;
85682;SDS011;76253;52.232;5.176;2024-02-23T12:53:35;4.25;;;1.60;;
85682;SDS011;76253;52.232;5.176;2024-02-23T12:56:03;4.40;;;1.30;;
85682;SDS011;76253;52.232;5.176;2024-02-23T12:58:31;4.18;;;1.00;;
85682;SDS011;76253;52.232;5.176;2024-02-23T13:00:58;4.72;;;1.50;;
85682;SDS011;76253;52.232;5.176;2024-02-23T13:05:52;7.60;;;1.65;;
85682;SDS011;76253;52.232;5.176;2024-02-23T13:08:19;2.60;;;0.90;;
85682;SDS011;76253;52.232;5.176;2024-02-23T13:10:44;2.58;;;1.10;;
85682;SDS011;76253;52.232;5.176;2024-02-23T13:15:35;2.97;;;1.30;;
85682;SDS011;76253;52.232;5.176;2024-02-23T13:18:03;5.68;;;1.50;;
85682;SDS011;76253;52.232;5.176;2024-02-23T13:20:29;2.17;;;0.88;;
85682;SDS011;76253;52.232;5.176;2024-02-23T13:22:56;4.07;;;2.13;;
85682;SDS011;76253;52.232;5.176;2024-02-23T13:25:21;7.90;;;1.50;;
85682;SDS011;76253;52.232;5.176;2024-02-23T13:27:46;3.20;;;1.17;;
85682;SDS011;76253;52.232;5.176;2024-02-23T13:30:12;2.75;;;1.23;;
85682;SDS011;76253;52.232;5.176;2024-02-23T13:32:38;2.80;;;1.10;;
85682;SDS011;76253;52.232;5.176;2024-02-23T13:35:05;3.38;;;1.60;;
85682;SDS011;76253;52.232;5.176;2024-02-23T13:37:31;4.20;;;1.55;;
85682;SDS011;76253;52.232;5.176;2024-02-23T13:39:57;3.97;;;1.30;;
85682;SDS011;76253;52.232;5.176;2024-02-23T13:44:47;2.13;;;1.30;;
85682;SDS011;76253;52.232;5.176;2024-02-23T13:49:38;3.38;;;1.40;;
85682;SDS011;76253;52.232;5.176;2024-02-23T13:52:03;4.20;;;1.52;;
85682;SDS011;76253;52.232;5.176;2024-02-23T13:56:57;2.57;;;0.93;;
85682;SDS011;76253;52.232;5.176;2024-02-23T13:59:22;3.55;;;1.45;;
85682;SDS011;76253;52.232;5.176;2024-02-23T14:01:48;4.25;;;1.02;;
85682;SDS011;76253;52.232;5.176;2024-02-23T14:04:13;2.47;;;1.08;;
85682;SDS011;76253;52.232;5.176;2024-02-23T14:09:04;2.60;;;0.90;;
85682;SDS011;76253;52.232;5.176;2024-02-23T14:11:30;2.47;;;1.02;;
85682;SDS011;76253;52.232;5.176;2024-02-23T14:16:21;2.90;;;1.10;;
85682;SDS011;76253;52.232;5.176;2024-02-23T14:18:48;5.85;;;1.38;;
85682;SDS011;76253;52.232;5.176;2024-02-23T14:21:14;1.83;;;1.02;;
85682;SDS011;76253;52.232;5.176;2024-02-23T14:26:05;1.98;;;0.90;;
85682;SDS011;76253;52.232;5.176;2024-02-23T14:28:32;4.50;;;2.58;;
85682;SDS011;76253;52.232;5.176;2024-02-23T14:33:23;2.53;;;1.03;;
85682;SDS011;76253;52.232;5.176;2024-02-23T14:38:15;5.00;;;1.48;;
85682;SDS011;76253;52.232;5.176;2024-02-23T14:40:41;2.33;;;1.10;;
85682;SDS011;76253;52.232;5.176;2024-02-23T14:45:32;2.15;;;1.52;;
85682;SDS011;76253;52.232;5.176;2024-02-23T14:47:59;3.25;;;1.42;;
85682;SDS011;76253;52.232;5.176;2024-02-23T14:50:25;4.63;;;1.67;;
85682;SDS011;76253;52.232;5.176;2024-02-23T14:55:16;1.67;;;1.10;;
85682;SDS011;76253;52.232;5.176;2024-02-23T15:00:08;4.10;;;1.20;;
85682;SDS011;76253;52.232;5.176;2024-02-23T15:02:34;3.72;;;1.35;;
85682;SDS011;76253;52.232;5.176;2024-02-23T15:05:01;1.63;;;1.40;;
85682;SDS011;76253;52.232;5.176;2024-02-23T15:07:26;2.55;;;1.50;;
85682;SDS011;76253;52.232;5.176;2024-02-23T15:09:53;3.88;;;1.63;;
85682;SDS011;76253;52.232;5.176;2024-02-23T15:12:18;2.00;;;1.05;;
85682;SDS011;76253;52.232;5.176;2024-02-23T15:17:09;0.50;;;0.50;;
85682;SDS011;76253;52.232;5.176;2024-02-23T15:22:01;3.85;;;2.35;;
85682;SDS011;76253;52.232;5.176;2024-02-23T15:24:27;1.95;;;1.58;;
85682;SDS011;76253;52.232;5.176;2024-02-23T15:26:52;3.08;;;1.08;;
85682;SDS011;76253;52.232;5.176;2024-02-23T15:29:20;3.00;;;0.85;;
85682;SDS011;76253;52.232;5.176;2024-02-23T15:31:47;1.50;;;0.98;;
85682;SDS011;76253;52.232;5.176;2024-02-23T15:34:13;2.38;;;1.25;;
85682;SDS011;76253;52.232;5.176;2024-02-23T15:36:40;3.05;;;0.80;;
85682;SDS011;76253;52.232;5.176;2024-02-23T15:39:05;1.92;;;1.10;;